Time;durP1;ratioP1;P1;durP2;ratioP2;P2;SDS_P1;SDS_P2;PMS_P1;PMS_P2;Temp;Humidity;BMP_temperature;BMP_pressure;BME280_temperature;BME280_humidity;BME280_pressure;Samples;Min_cycle;Max_cycle;Signal;HPM_P1;HPM_P2
2023/01/17 00:01:45;;;;;;;1.83;0.70;;;8.20;69.30;;;;;;2330898;53;21846;-72
2023/01/17 00:09:53;;;;;;;1.40;0.60;;;8.10;69.30;;;;;;2363385;53;20936;-72
2023/01/17 00:12:19;;;;;;;2.03;0.60;;;8.20;69.40;;;;;;2331365;53;20976;-72
2023/01/17 00:14:46;;;;;;;1.98;0.70;;;8.20;69.40;;;;;;2449872;53;21454;-72
2023/01/17 00:17:13;;;;;;;1.87;0.70;;;8.20;69.30;;;;;;2331653;53;21368;-72
2023/01/17 01:34:34;;;;;;;1.87;0.80;;;8.00;69.50;;;;;;2331444;53;21462;-71
2023/01/17 01:37:01;;;;;;;2.25;0.80;;;8.00;69.40;;;;;;2410299;53;21047;-71
2023/01/17 01:39:27;;;;;;;1.60;0.75;;;8.00;69.40;;;;;;2331399;53;20984;-71
2023/01/17 01:41:53;;;;;;;3.00;0.90;;;8.00;69.50;;;;;;2331194;53;21356;-71
2023/01/17 01:44:47;;;;;;;3.20;0.70;;;8.00;69.40;;;;;;2331698;53;20980;-72
2023/01/17 01:48:11;;;;;;;3.28;0.90;;;8.00;69.00;;;;;;2331104;53;21447;-73
2023/01/17 01:50:38;;;;;;;3.58;0.82;;;8.00;68.70;;;;;;2308328;54;21469;-72
2023/01/17 01:53:04;;;;;;;3.67;1.00;;;7.90;69.40;;;;;;2331277;53;21312;-73
2023/01/17 01:55:33;;;;;;;1.62;0.60;;;7.90;69.40;;;;;;2386695;53;20995;-71
2023/01/17 01:58:03;;;;;;;1.27;0.52;;;7.90;69.40;;;;;;2331447;53;21295;-73
2023/01/17 02:00:32;;;;;;;2.35;0.85;;;7.90;69.50;;;;;;2576496;53;20924;-72
2023/01/17 02:03:01;;;;;;;2.12;0.62;;;7.90;69.50;;;;;;2331255;53;21750;-71
2023/01/17 02:05:27;;;;;;;1.48;0.70;;;7.90;69.60;;;;;;2331334;54;21521;-72
2023/01/17 02:07:57;;;;;;;1.62;0.50;;;7.90;69.60;;;;;;2330965;53;21805;-71
2023/01/17 02:10:24;;;;;;;1.70;0.60;;;7.90;69.60;;;;;;2398079;53;20948;-72
2023/01/17 02:12:52;;;;;;;1.73;0.70;;;7.90;69.70;;;;;;2331078;53;21371;-72
2023/01/17 02:15:19;;;;;;;1.60;0.65;;;7.90;69.70;;;;;;2331397;53;21209;-71
2023/01/17 02:18:08;;;;;;;1.33;0.60;;;7.80;69.60;;;;;;2331121;53;21016;-72
2023/01/17 02:21:14;;;;;;;2.08;0.68;;;7.90;69.20;;;;;;2331199;53;21066;-72
2023/01/17 02:30:10;;;;;;;3.92;0.90;;;7.90;69.20;;;;;;2330930;53;21067;-72
2023/01/17 02:34:20;;;;;;;1.40;0.60;;;7.80;68.40;;;;;;2331273;53;20960;-72
2023/01/17 02:37:03;;;;;;;1.70;0.62;;;7.80;69.30;;;;;;2330442;53;21508;-73
2023/01/17 02:39:33;;;;;;;1.48;0.60;;;7.80;69.30;;;;;;2425912;53;21031;-71
2023/01/17 02:42:01;;;;;;;1.05;0.50;;;7.80;69.50;;;;;;2359205;53;20957;-71
2023/01/17 02:44:28;;;;;;;1.83;0.80;;;7.80;69.60;;;;;;2399574;53;20964;-71
2023/01/17 02:46:55;;;;;;;2.03;0.80;;;7.80;69.70;;;;;;2345317;53;21507;-73
2023/01/17 02:49:24;;;;;;;1.35;0.80;;;7.80;69.80;;;;;;2513753;53;20949;-73
2023/01/17 02:55:00;;;;;;;1.87;0.75;;;7.80;69.70;;;;;;2330841;53;20912;-72
2023/01/17 02:58:23;;;;;;;3.80;0.80;;;7.80;69.50;;;;;;2396287;53;20977;-72
2023/01/17 03:01:28;;;;;;;1.15;0.60;;;7.80;68.90;;;;;;2331210;53;21048;-72
2023/01/17 03:04:01;;;;;;;2.05;0.70;;;7.80;69.30;;;;;;2495244;53;21518;-71
2023/01/17 03:06:52;;;;;;;1.60;0.50;;;7.80;69.70;;;;;;2507366;53;21463;-71
2023/01/17 03:09:19;;;;;;;1.30;0.50;;;7.80;69.40;;;;;;2331577;53;21505;-73
2023/01/17 03:11:45;;;;;;;0.95;0.47;;;7.80;69.90;;;;;;2331341;53;20925;-73
2023/01/17 03:14:12;;;;;;;1.35;0.50;;;7.80;70.00;;;;;;2331551;53;20969;-71
2023/01/17 03:16:38;;;;;;;2.28;0.55;;;7.80;70.00;;;;;;2377897;53;21829;-72
2023/01/17 03:19:04;;;;;;;0.95;0.43;;;7.80;70.00;;;;;;2489750;53;21259;-72
2023/01/17 03:21:31;;;;;;;1.67;0.50;;;7.80;69.90;;;;;;2330538;53;21264;-72
2023/01/17 03:23:58;;;;;;;1.55;0.60;;;7.80;69.80;;;;;;2331091;53;21032;-73
2023/01/17 03:26:24;;;;;;;1.05;0.50;;;7.80;69.70;;;;;;2331319;53;20992;-72
2023/01/17 03:28:50;;;;;;;0.75;0.40;;;7.80;69.60;;;;;;2331002;53;20948;-72
2023/01/17 03:31:18;;;;;;;1.50;0.62;;;7.80;69.60;;;;;;2331682;53;21441;-71
2023/01/17 03:33:45;;;;;;;1.67;0.55;;;7.80;69.70;;;;;;2331253;53;21016;-72
2023/01/17 03:36:11;;;;;;;1.30;0.55;;;7.80;69.80;;;;;;2434071;53;21443;-72
2023/01/17 03:38:38;;;;;;;3.47;0.88;;;7.80;69.80;;;;;;2385312;53;20948;-71
2023/01/17 03:41:05;;;;;;;1.77;0.73;;;7.80;69.80;;;;;;2331778;53;21743;-71
2023/01/17 03:43:31;;;;;;;1.80;0.60;;;7.80;69.80;;;;;;2337059;53;21945;-71
2023/01/17 03:46:01;;;;;;;1.60;0.62;;;7.80;69.80;;;;;;2330854;53;21092;-72
2023/01/17 03:48:28;;;;;;;2.10;0.55;;;7.80;69.70;;;;;;2331463;53;21954;-71
2023/01/17 03:50:54;;;;;;;2.00;0.70;;;7.70;69.60;;;;;;2330677;53;20944;-72
2023/01/17 03:53:20;;;;;;;1.20;0.57;;;7.80;69.80;;;;;;2331426;53;21013;-72
2023/01/17 03:55:46;;;;;;;2.50;0.70;;;7.80;69.80;;;;;;2331363;53;21054;-72
2023/01/17 03:58:15;;;;;;;2.85;0.70;;;7.80;69.90;;;;;;2331348;53;21871;-72
2023/01/17 04:00:41;;;;;;;1.30;0.60;;;7.80;69.90;;;;;;2331053;53;21893;-71
2023/01/17 04:03:08;;;;;;;2.55;0.98;;;7.80;69.90;;;;;;2381694;53;21424;-71
2023/01/17 04:05:34;;;;;;;2.15;0.70;;;7.80;69.90;;;;;;2331143;53;21515;-73
2023/01/17 04:08:01;;;;;;;2.12;0.80;;;7.80;69.90;;;;;;2341744;53;21484;-72
2023/01/17 04:10:28;;;;;;;1.62;0.80;;;7.80;69.80;;;;;;2337083;53;20964;-71
2023/01/17 04:12:56;;;;;;;3.33;0.70;;;7.80;69.80;;;;;;2330831;53;21467;-71
2023/01/17 04:15:22;;;;;;;1.48;0.60;;;7.80;69.80;;;;;;2331292;53;21051;-72
2023/01/17 04:17:48;;;;;;;1.95;0.50;;;7.80;69.90;;;;;;2331499;53;20945;-71
2023/01/17 04:20:17;;;;;;;1.45;0.70;;;7.80;69.90;;;;;;2331385;53;20957;-71
2023/01/17 04:22:43;;;;;;;1.70;0.73;;;7.80;69.90;;;;;;2510630;53;20978;-71
2023/01/17 04:25:10;;;;;;;1.60;0.70;;;7.80;69.90;;;;;;2331295;53;20949;-72
2023/01/17 04:27:37;;;;;;;2.08;0.62;;;7.80;69.80;;;;;;2330917;53;20972;-72
2023/01/17 04:30:05;;;;;;;1.87;0.62;;;7.80;69.90;;;;;;2448880;53;21598;-72
2023/01/17 04:32:31;;;;;;;1.15;0.40;;;7.80;69.90;;;;;;2351320;53;21252;-72
2023/01/17 04:34:57;;;;;;;1.73;0.62;;;7.80;69.90;;;;;;2330617;53;21251;-72
2023/01/17 04:37:24;;;;;;;2.37;0.50;;;7.80;69.80;;;;;;2576903;53;20949;-72
2023/01/17 04:39:51;;;;;;;2.95;0.70;;;7.80;69.90;;;;;;2330536;53;21823;-71
2023/01/17 04:42:17;;;;;;;0.73;0.50;;;7.80;69.80;;;;;;2331476;53;21307;-71
2023/01/17 04:44:44;;;;;;;1.10;0.50;;;7.80;69.80;;;;;;2370174;53;21110;-72
2023/01/17 04:47:10;;;;;;;2.78;1.00;;;7.80;69.90;;;;;;2333831;53;20967;-72
2023/01/17 04:49:37;;;;;;;2.12;0.98;;;7.80;69.80;;;;;;2330900;53;20940;-72
2023/01/17 04:52:03;;;;;;;2.85;1.48;;;7.80;69.80;;;;;;2331113;53;21076;-71
2023/01/17 04:54:29;;;;;;;2.47;1.05;;;7.80;69.80;;;;;;2331554;53;21390;-72
2023/01/17 04:56:56;;;;;;;2.40;0.90;;;7.80;69.70;;;;;;2331207;53;20948;-72
2023/01/17 04:59:22;;;;;;;2.55;0.70;;;7.80;69.70;;;;;;2331811;53;21459;-71
2023/01/17 05:01:55;;;;;;;2.85;0.70;;;7.70;69.60;;;;;;2331393;53;21032;-71
2023/01/17 05:04:21;;;;;;;1.67;0.68;;;7.70;69.40;;;;;;2331702;53;21466;-72
2023/01/17 05:06:47;;;;;;;1.62;0.50;;;7.70;69.50;;;;;;2576594;53;20957;-71
2023/01/17 05:09:14;;;;;;;1.95;0.73;;;7.70;69.50;;;;;;2377127;53;21438;-71
2023/01/17 05:11:40;;;;;;;1.50;0.52;;;7.70;69.50;;;;;;2334109;53;21496;-72
2023/01/17 05:14:08;;;;;;;2.03;0.80;;;7.70;69.40;;;;;;2331587;53;20960;-72
2023/01/17 05:16:34;;;;;;;3.50;0.90;;;7.70;69.40;;;;;;2498700;53;21092;-72
2023/01/17 05:19:01;;;;;;;3.60;0.65;;;7.70;69.40;;;;;;2399886;53;20964;-71
2023/01/17 05:21:29;;;;;;;2.83;0.70;;;7.70;69.40;;;;;;2356621;53;22040;-72
2023/01/17 05:23:55;;;;;;;3.08;1.02;;;7.60;69.20;;;;;;2327595;53;20999;-72
2023/01/17 05:26:22;;;;;;;3.03;0.77;;;7.60;69.20;;;;;;2331549;53;21489;-72
2023/01/17 05:28:49;;;;;;;2.65;0.90;;;7.60;69.20;;;;;;2331058;53;21000;-72
2023/01/17 05:31:15;;;;;;;2.28;0.80;;;7.60;69.20;;;;;;2534506;53;21340;-72
2023/01/17 05:33:42;;;;;;;2.17;0.80;;;7.60;69.20;;;;;;2331120;53;21498;-72
2023/01/17 05:36:09;;;;;;;2.30;1.15;;;7.60;69.20;;;;;;2331307;53;21009;-72
2023/01/17 05:38:35;;;;;;;3.45;1.00;;;7.60;69.20;;;;;;2441833;53;21547;-72
2023/01/17 05:41:03;;;;;;;4.35;0.98;;;7.50;69.20;;;;;;2337252;53;21108;-72
2023/01/17 05:43:30;;;;;;;2.30;1.00;;;7.50;69.20;;;;;;2331300;53;21753;-71
2023/01/17 05:45:56;;;;;;;3.37;1.60;;;7.50;69.80;;;;;;2330411;53;20967;-72
2023/01/17 05:48:23;;;;;;;2.60;1.30;;;7.50;69.20;;;;;;2331516;53;21890;-71
2023/01/17 05:50:51;;;;;;;3.25;1.35;;;7.50;69.20;;;;;;2576368;53;21086;-72
2023/01/17 05:53:17;;;;;;;4.07;0.90;;;7.50;69.20;;;;;;2331076;53;21111;-71
2023/01/17 05:55:43;;;;;;;2.58;1.20;;;7.40;69.10;;;;;;2330429;53;20955;-71
2023/01/17 05:58:17;;;;;;;2.28;0.90;;;7.40;69.10;;;;;;2331209;53;21379;-71
2023/01/17 06:00:43;;;;;;;2.75;0.90;;;7.40;69.00;;;;;;2377149;53;20961;-71
2023/01/17 06:03:10;;;;;;;2.75;1.00;;;7.40;69.20;;;;;;2333147;53;21048;-71
2023/01/17 06:05:37;;;;;;;2.55;1.10;;;7.40;69.20;;;;;;2332072;53;20995;-73
2023/01/17 06:08:03;;;;;;;1.90;0.80;;;7.40;69.10;;;;;;2335784;53;21031;-72
2023/01/17 06:10:30;;;;;;;2.78;0.85;;;7.30;69.00;;;;;;2327766;53;21020;-71
2023/01/17 06:13:04;;;;;;;1.67;0.82;;;7.30;69.00;;;;;;2330421;53;21023;-71
2023/01/17 06:15:31;;;;;;;3.60;1.35;;;7.30;68.70;;;;;;2499219;53;20948;-72
2023/01/17 06:18:03;;;;;;;1.98;0.93;;;7.30;68.80;;;;;;2331636;53;20944;-72
2023/01/17 06:20:29;;;;;;;1.73;0.80;;;7.30;68.70;;;;;;2414737;53;20944;-73
2023/01/17 06:23:00;;;;;;;4.15;1.80;;;7.20;68.50;;;;;;2331590;53;20944;-71
2023/01/17 06:25:28;;;;;;;4.80;1.70;;;7.20;68.30;;;;;;2342484;53;20996;-72
2023/01/17 06:27:56;;;;;;;3.50;1.55;;;7.10;68.20;;;;;;2463969;53;21520;-71
2023/01/17 06:30:23;;;;;;;3.35;1.17;;;7.10;68.30;;;;;;2426391;53;21087;-71
2023/01/17 06:32:52;;;;;;;3.12;1.20;;;7.00;68.30;;;;;;2425217;53;20948;-71
2023/01/17 06:35:19;;;;;;;2.35;1.00;;;7.00;68.30;;;;;;2332202;53;21511;-70
2023/01/17 06:37:49;;;;;;;2.08;0.98;;;7.00;68.40;;;;;;2331043;53;20977;-72
2023/01/17 06:40:17;;;;;;;2.90;0.90;;;6.90;68.40;;;;;;2312412;54;21538;-71
2023/01/17 06:42:44;;;;;;;2.87;1.10;;;6.90;68.40;;;;;;2576849;53;21035;-73
2023/01/17 06:45:12;;;;;;;9.15;5.87;;;6.90;68.50;;;;;;2331972;53;20952;-72
2023/01/17 06:47:38;;;;;;;22.87;11.07;;;6.90;68.60;;;;;;2337986;53;20941;-71
2023/01/17 06:50:06;;;;;;;24.55;12.37;;;6.80;68.60;;;;;;2551033;53;21067;-72
2023/01/17 06:52:32;;;;;;;15.82;9.57;;;6.80;68.60;;;;;;2332274;53;21949;-71
2023/01/17 06:54:59;;;;;;;16.42;10.73;;;6.80;68.70;;;;;;2331744;53;21064;-71
2023/01/17 06:57:25;;;;;;;16.12;10.82;;;6.80;68.70;;;;;;2332216;53;21127;-71
2023/01/17 06:59:52;;;;;;;14.82;9.93;;;6.70;68.50;;;;;;2379047;53;20956;-71
2023/01/17 07:02:18;;;;;;;14.55;8.98;;;6.70;68.60;;;;;;2333468;53;20968;-70
2023/01/17 07:04:45;;;;;;;13.43;8.43;;;6.70;68.60;;;;;;2455513;53;21011;-72
2023/01/17 07:07:14;;;;;;;16.17;11.70;;;6.70;68.60;;;;;;2287779;55;21024;-72
2023/01/17 07:09:41;;;;;;;16.10;12.18;;;6.70;68.70;;;;;;2299586;54;21822;-72
2023/01/17 07:12:09;;;;;;;11.68;7.20;;;6.70;68.70;;;;;;2300168;54;20967;-72
2023/01/17 07:14:35;;;;;;;6.25;4.62;;;6.60;68.50;;;;;;2300201;54;20962;-71
2023/01/17 07:17:06;;;;;;;4.28;3.20;;;6.60;68.50;;;;;;2371583;53;20916;-71
2023/01/17 07:19:32;;;;;;;4.60;2.85;;;6.60;68.50;;;;;;2538091;53;22109;-71
2023/01/17 07:21:59;;;;;;;5.10;1.85;;;6.50;68.40;;;;;;2302876;54;21075;-71
2023/01/17 07:24:25;;;;;;;2.95;1.52;;;6.50;68.40;;;;;;2538859;53;21042;-71
2023/01/17 07:26:52;;;;;;;3.33;1.58;;;6.50;68.30;;;;;;2299855;54;20991;-73
2023/01/17 07:29:18;;;;;;;3.40;1.30;;;6.50;68.40;;;;;;2405409;54;22010;-72
2023/01/17 07:31:47;;;;;;;2.42;1.12;;;6.50;68.40;;;;;;2312280;53;20981;-71
2023/01/17 07:34:14;;;;;;;2.58;1.10;;;6.40;68.30;;;;;;2462991;54;20925;-72
2023/01/17 07:36:40;;;;;;;3.05;1.42;;;6.40;68.30;;;;;;2299817;55;21040;-73
2023/01/17 07:39:10;;;;;;;3.80;1.83;;;6.40;68.30;;;;;;2326447;54;20948;-71
2023/01/17 07:41:40;;;;;;;4.18;1.62;;;6.30;68.10;;;;;;2299925;54;21922;-72
2023/01/17 07:44:09;;;;;;;10.05;6.85;;;6.30;68.20;;;;;;2300370;54;20937;-73
2023/01/17 07:46:36;;;;;;;4.82;2.80;;;6.30;68.30;;;;;;2300403;54;21106;-72
2023/01/17 07:49:03;;;;;;;4.35;2.58;;;6.20;68.10;;;;;;2299905;55;21009;-72
2023/01/17 07:51:29;;;;;;;4.70;2.50;;;6.20;68.10;;;;;;2300332;55;20996;-70
2023/01/17 07:53:55;;;;;;;6.05;3.15;;;6.20;68.10;;;;;;2444047;54;20917;-72
2023/01/17 07:56:23;;;;;;;4.20;2.20;;;6.10;67.90;;;;;;2299991;55;20948;-71
2023/01/17 07:58:50;;;;;;;5.68;2.70;;;6.10;67.90;;;;;;2538604;54;20928;-71
2023/01/17 08:01:17;;;;;;;4.12;1.90;;;6.10;67.90;;;;;;2300459;55;22096;-70
2023/01/17 08:03:44;;;;;;;3.78;1.67;;;6.00;67.90;;;;;;2356101;53;21039;-71
2023/01/17 08:06:19;;;;;;;3.42;1.58;;;6.00;67.90;;;;;;2300333;54;21035;-72
2023/01/17 08:08:46;;;;;;;3.75;1.62;;;6.00;67.80;;;;;;2299679;53;21018;-72
2023/01/17 08:11:13;;;;;;;3.30;1.70;;;5.90;67.80;;;;;;2300157;53;20959;-72
2023/01/17 08:13:40;;;;;;;5.87;2.30;;;5.90;67.90;;;;;;2462519;53;20978;-71
2023/01/17 08:16:11;;;;;;;5.18;2.00;;;5.90;68.00;;;;;;2299816;53;20982;-71
2023/01/17 08:18:37;;;;;;;5.80;2.85;;;5.80;68.60;;;;;;2371463;53;21149;-71
2023/01/17 08:21:06;;;;;;;3.60;1.77;;;5.80;68.10;;;;;;2315883;53;21124;-71
2023/01/17 08:23:32;;;;;;;4.78;2.60;;;5.80;68.20;;;;;;2308491;53;20927;-71
2023/01/17 08:26:00;;;;;;;6.40;2.72;;;5.80;68.30;;;;;;2300069;54;20966;-71
2023/01/17 08:28:27;;;;;;;5.78;2.95;;;5.70;68.30;;;;;;2328708;53;21026;-72
2023/01/17 08:30:53;;;;;;;6.45;3.22;;;5.70;68.40;;;;;;2316556;53;20972;-72
2023/01/17 08:33:19;;;;;;;8.35;3.55;;;5.70;68.50;;;;;;2306003;53;20927;-71
2023/01/17 08:35:52;;;;;;;6.22;3.17;;;5.70;68.60;;;;;;2304188;53;20979;-73
2023/01/17 08:38:19;;;;;;;4.72;2.40;;;5.70;68.70;;;;;;2453804;54;21066;-72
2023/01/17 08:40:45;;;;;;;5.00;2.35;;;5.70;68.80;;;;;;2330096;54;20932;-72
2023/01/17 08:43:13;;;;;;;4.97;2.35;;;5.70;68.80;;;;;;2337247;53;21455;-71
2023/01/17 08:45:42;;;;;;;6.57;3.35;;;5.70;68.90;;;;;;2331382;55;22220;-73
2023/01/17 08:48:09;;;;;;;5.62;2.65;;;5.70;68.90;;;;;;2311104;54;21553;-72
2023/01/17 08:50:36;;;;;;;5.90;3.03;;;5.70;68.90;;;;;;2304643;53;20957;-71
2023/01/17 08:53:02;;;;;;;5.62;2.42;;;5.70;68.90;;;;;;2331699;54;21048;-72
2023/01/17 08:55:28;;;;;;;4.85;2.25;;;5.70;69.00;;;;;;2331549;55;20953;-73
2023/01/17 08:57:55;;;;;;;4.93;2.10;;;5.60;69.10;;;;;;2331299;55;21886;-74
2023/01/17 09:00:25;;;;;;;3.85;1.87;;;5.60;69.20;;;;;;2331949;55;21990;-72
2023/01/17 09:02:52;;;;;;;3.28;1.70;;;5.70;69.40;;;;;;2333043;54;20987;-72
2023/01/17 09:05:19;;;;;;;3.05;1.40;;;5.70;69.60;;;;;;2321576;53;20948;-73
2023/01/17 09:07:45;;;;;;;3.03;1.20;;;5.70;69.60;;;;;;2398299;53;20965;-72
2023/01/17 09:10:15;;;;;;;3.22;1.25;;;5.70;69.80;;;;;;2326082;53;20984;-72
2023/01/17 09:12:41;;;;;;;2.78;0.95;;;5.70;69.90;;;;;;2340025;53;20961;-71
2023/01/17 09:15:09;;;;;;;3.97;1.20;;;5.80;70.20;;;;;;2326521;53;20936;-72
2023/01/17 09:17:35;;;;;;;3.70;1.50;;;5.80;70.30;;;;;;2332082;53;20988;-72
2023/01/17 09:20:01;;;;;;;4.03;1.77;;;5.80;70.50;;;;;;2380022;53;21510;-71
2023/01/17 09:22:28;;;;;;;5.40;2.03;;;5.90;70.80;;;;;;2325707;53;21474;-70
2023/01/17 09:24:54;;;;;;;4.10;2.25;;;5.90;70.80;;;;;;2325975;53;21561;-72
2023/01/17 09:27:20;;;;;;;5.53;3.12;;;5.90;70.80;;;;;;2376561;53;21474;-71
2023/01/17 09:29:47;;;;;;;5.00;2.58;;;6.00;71.00;;;;;;2396303;53;21346;-71
2023/01/17 09:32:15;;;;;;;5.72;2.97;;;6.00;71.00;;;;;;2326246;53;20941;-73
2023/01/17 09:34:42;;;;;;;6.80;2.58;;;6.10;71.20;;;;;;2326080;53;21466;-71
2023/01/17 09:37:09;;;;;;;3.87;1.65;;;6.10;71.30;;;;;;2326338;53;21593;-72
2023/01/17 09:39:36;;;;;;;4.15;1.70;;;6.20;71.40;;;;;;2326258;53;21423;-72
2023/01/17 09:42:32;;;;;;;2.67;1.23;;;6.20;71.40;;;;;;2326199;53;21335;-71
2023/01/17 09:44:59;;;;;;;4.87;1.50;;;6.30;71.30;;;;;;2327756;53;21016;-72
2023/01/17 09:47:50;;;;;;;3.78;1.23;;;6.30;71.60;;;;;;2320133;53;21506;-72
2023/01/17 09:51:01;;;;;;;3.42;1.40;;;6.40;71.50;;;;;;2326542;53;21087;-72
2023/01/17 09:53:30;;;;;;;2.97;1.03;;;6.50;71.60;;;;;;2323730;53;21104;-72
2023/01/17 09:56:02;;;;;;;2.60;1.20;;;6.50;71.60;;;;;;2407686;53;21480;-71
2023/01/17 10:02:19;;;;;;;2.62;1.10;;;6.60;71.70;;;;;;2322091;53;21470;-72
2023/01/17 10:09:46;;;;;;;1.98;1.00;;;6.60;71.20;;;;;;2299511;55;21019;-72
2023/01/17 10:12:23;;;;;;;2.65;1.15;;;6.80;70.40;;;;;;2326422;53;21454;-71
2023/01/17 10:15:15;;;;;;;4.00;1.20;;;6.90;71.30;;;;;;2353168;53;20941;-73
2023/01/17 10:18:08;;;;;;;2.65;1.02;;;6.90;71.00;;;;;;2326061;53;20916;-71
2023/01/17 10:23:24;;;;;;;4.12;1.02;;;6.90;70.80;;;;;;2325864;53;20933;-72
2023/01/17 10:25:51;;;;;;;3.40;1.58;;;6.90;71.00;;;;;;2367809;53;21846;-73
2023/01/17 10:28:23;;;;;;;3.42;1.40;;;7.00;71.20;;;;;;2326316;53;21008;-71
2023/01/17 10:31:04;;;;;;;3.30;1.58;;;7.00;71.20;;;;;;2396463;53;21532;-71
2023/01/17 10:33:39;;;;;;;4.50;2.05;;;7.10;71.20;;;;;;2325894;53;21498;-72
2023/01/17 10:36:14;;;;;;;4.10;1.85;;;7.10;71.30;;;;;;2570242;53;21483;-71
2023/01/17 10:38:40;;;;;;;4.57;1.65;;;7.10;71.40;;;;;;2421504;53;22991;-71
2023/01/17 10:42:43;;;;;;;4.28;1.80;;;7.20;71.50;;;;;;2384767;53;21255;-72
2023/01/17 10:45:19;;;;;;;4.30;2.10;;;7.20;71.50;;;;;;2334013;53;21000;-71
2023/01/17 10:47:48;;;;;;;4.68;2.03;;;7.30;71.50;;;;;;2326193;53;20973;-73
2023/01/17 10:50:17;;;;;;;3.97;2.05;;;7.30;71.60;;;;;;2326309;53;20937;-72
2023/01/17 10:53:10;;;;;;;4.35;2.10;;;7.30;71.50;;;;;;2326341;53;21004;-73
2023/01/17 10:55:55;;;;;;;4.93;2.17;;;7.40;70.90;;;;;;2570291;53;20940;-73
2023/01/17 10:58:21;;;;;;;3.95;1.73;;;7.40;70.90;;;;;;2328258;53;20945;-71
2023/01/17 11:01:15;;;;;;;4.43;2.05;;;7.40;71.20;;;;;;2326076;53;21407;-72
2023/01/17 11:03:43;;;;;;;3.70;1.80;;;7.50;70.80;;;;;;2331916;53;21044;-72
2023/01/17 11:06:18;;;;;;;3.70;2.00;;;7.50;71.30;;;;;;2326366;53;20988;-72
2023/01/17 11:08:55;;;;;;;4.95;2.03;;;7.60;71.20;;;;;;2325882;53;21473;-71
2023/01/17 11:11:30;;;;;;;4.05;2.05;;;7.60;71.00;;;;;;2339196;53;20952;-72
2023/01/17 11:14:01;;;;;;;4.32;1.98;;;7.60;71.10;;;;;;2326219;53;21315;-73
2023/01/17 11:16:30;;;;;;;4.05;1.98;;;7.60;71.20;;;;;;2513355;53;20949;-73
2023/01/17 11:20:15;;;;;;;5.10;2.20;;;7.60;71.00;;;;;;2560960;53;21096;-71
2023/01/17 11:23:07;;;;;;;5.75;2.20;;;7.70;70.10;;;;;;2569933;53;20917;-73
2023/01/17 11:25:33;;;;;;;5.20;2.28;;;7.70;70.70;;;;;;2326061;53;22052;-73
2023/01/17 11:28:24;;;;;;;6.50;2.22;;;7.70;71.10;;;;;;2325932;53;20936;-73
2023/01/17 11:31:10;;;;;;;4.80;2.25;;;7.70;71.00;;;;;;2326286;54;20941;-73
2023/01/17 11:34:17;;;;;;;4.53;2.08;;;7.80;70.90;;;;;;2347681;53;20957;-72
2023/01/17 11:36:43;;;;;;;3.83;1.92;;;7.80;70.80;;;;;;2326023;53;21338;-72
2023/01/17 11:39:26;;;;;;;3.28;1.65;;;7.80;71.20;;;;;;2322372;53;20972;-72
2023/01/17 11:41:52;;;;;;;;;;;7.90;70.90;;;;;;2409281;53;21325;-72
2023/01/17 11:44:27;;;;;;;3.28;1.37;;;7.90;70.10;;;;;;2326442;53;20066;-72
2023/01/17 11:47:15;;;;;;;3.90;1.73;;;8.00;71.20;;;;;;2325956;53;21794;-72
2023/01/17 11:49:43;;;;;;;5.30;2.33;;;8.00;70.80;;;;;;2338393;53;20981;-72
2023/01/17 11:52:31;;;;;;;4.40;1.70;;;8.00;71.30;;;;;;2368357;53;21036;-73
2023/01/17 11:54:58;;;;;;;4.97;1.75;;;8.10;70.80;;;;;;2407153;53;21275;-72
2023/01/17 11:57:32;;;;;;;3.80;1.70;;;8.10;71.40;;;;;;2326530;53;21450;-72
2023/01/17 12:00:23;;;;;;;4.30;1.70;;;8.10;71.30;;;;;;2325892;53;21505;-72
2023/01/17 12:05:52;;;;;;;3.92;1.75;;;8.20;71.00;;;;;;2371554;53;21562;-73
2023/01/17 12:09:21;;;;;;;3.35;1.60;;;8.30;70.50;;;;;;2300047;54;20940;-73
2023/01/17 12:24:11;;;;;;;3.40;1.30;;;8.40;71.40;;;;;;2326091;53;22038;-72
2023/01/17 12:26:41;;;;;;;3.20;1.37;;;8.50;70.50;;;;;;2325900;53;21579;-72
2023/01/17 12:30:50;;;;;;;3.45;1.17;;;8.60;71.70;;;;;;2326126;53;20972;-72
2023/01/17 12:33:37;;;;;;;2.75;1.10;;;8.70;71.40;;;;;;2326679;53;20968;-73
2023/01/17 12:36:08;;;;;;;2.90;1.30;;;8.70;71.70;;;;;;2326662;53;21035;-72
2023/01/17 12:38:35;;;;;;;2.40;1.30;;;8.80;71.70;;;;;;2326665;53;21040;-73
2023/01/17 12:41:28;;;;;;;3.03;1.37;;;8.80;71.70;;;;;;2326837;53;20964;-73
2023/01/17 12:43:55;;;;;;;;;;;8.80;71.30;;;;;;2330036;53;21591;-75
2023/01/17 12:46:28;;;;;;;2.62;1.23;;;8.90;70.50;;;;;;2327131;53;20140;-72
2023/01/17 12:49:03;;;;;;;4.22;1.58;;;8.90;71.40;;;;;;2366248;53;20983;-72
2023/01/17 12:51:32;;;;;;;3.17;1.37;;;8.90;71.20;;;;;;2326017;53;20956;-73
2023/01/17 12:54:07;;;;;;;3.72;1.60;;;9.00;71.60;;;;;;2371711;53;20991;-72
2023/01/17 12:56:38;;;;;;;4.22;1.87;;;9.00;71.50;;;;;;2445052;53;21458;-73
2023/01/17 13:00:00;;;;;;;3.50;1.55;;;9.00;71.50;;;;;;2326340;53;20935;-73
2023/01/17 13:08:18;;;;;;;4.83;1.33;;;9.10;70.20;;;;;;2348989;53;20956;-73
2023/01/17 13:10:54;;;;;;;3.53;1.02;;;9.20;70.00;;;;;;2323678;54;20987;-73
2023/01/17 13:13:34;;;;;;;3.00;1.30;;;9.20;71.00;;;;;;2324536;53;21076;-72
2023/01/17 13:16:12;;;;;;;3.20;1.12;;;9.30;70.70;;;;;;2325882;53;21445;-72
2023/01/17 13:18:45;;;;;;;3.40;1.37;;;9.30;70.70;;;;;;2326078;53;21470;-72
2023/01/17 13:21:32;;;;;;;2.83;1.10;;;9.30;71.00;;;;;;2384318;53;21028;-73
2023/01/17 13:24:18;;;;;;;3.03;1.20;;;9.30;70.30;;;;;;2326277;53;20964;-72
2023/01/17 13:31:14;;;;;;;2.42;1.00;;;9.30;70.90;;;;;;2325786;53;20913;-72
2023/01/17 13:37:03;;;;;;;3.10;1.42;;;9.40;69.70;;;;;;2569885;53;20988;-73
2023/01/17 13:42:21;;;;;;;3.25;1.00;;;9.40;70.90;;;;;;2326757;53;21508;-72
2023/01/17 13:44:48;;;;;;;2.90;0.95;;;9.50;70.30;;;;;;2326149;53;20921;-72
2023/01/17 13:47:36;;;;;;;1.85;0.85;;;9.60;71.70;;;;;;2326464;53;21471;-72
2023/01/17 13:50:02;;;;;;;3.62;1.70;;;9.60;70.70;;;;;;2325787;53;20933;-73
2023/01/17 13:52:30;;;;;;;2.90;1.30;;;9.60;71.50;;;;;;2325923;53;21463;-72
2023/01/17 13:55:01;;;;;;;3.40;1.15;;;9.70;71.60;;;;;;2326999;53;21076;-72
2023/01/17 13:57:31;;;;;;;3.40;1.10;;;9.70;71.40;;;;;;2326109;53;20988;-73
2023/01/17 13:59:59;;;;;;;2.67;1.08;;;9.80;71.40;;;;;;2563101;53;21878;-72
2023/01/17 14:02:35;;;;;;;2.53;1.05;;;9.80;71.30;;;;;;2324565;53;20925;-72
2023/01/17 14:05:21;;;;;;;3.10;1.10;;;9.80;70.70;;;;;;2326089;53;21366;-72
2023/01/17 14:07:56;;;;;;;2.28;0.88;;;9.90;70.20;;;;;;2326118;53;20917;-71
2023/01/17 14:10:40;;;;;;;2.45;0.90;;;9.90;70.30;;;;;;2567905;53;20984;-72
2023/01/17 14:13:37;;;;;;;1.85;0.75;;;9.90;69.70;;;;;;2326619;53;21702;-72
2023/01/17 14:16:25;;;;;;;2.12;0.90;;;9.90;69.50;;;;;;2569919;53;20953;-72
2023/01/17 14:18:51;;;;;;;3.92;1.10;;;10.00;68.10;;;;;;2325823;53;20969;-72
2023/01/17 14:21:36;;;;;;;1.80;0.80;;;9.90;69.90;;;;;;2484618;53;21421;-71
2023/01/17 14:24:23;;;;;;;2.80;0.90;;;10.00;68.00;;;;;;2325959;53;20984;-73
2023/01/17 14:26:59;;;;;;;1.90;0.70;;;9.90;69.60;;;;;;2342537;53;20932;-72
2023/01/17 14:29:49;;;;;;;2.28;0.88;;;9.90;69.20;;;;;;2571063;53;20988;-72
2023/01/17 14:32:20;;;;;;;1.80;0.80;;;9.90;68.70;;;;;;2376393;53;21041;-71
2023/01/17 14:34:48;;;;;;;2.37;0.85;;;9.90;69.30;;;;;;2520201;53;21031;-71
2023/01/17 14:37:40;;;;;;;2.20;0.77;;;9.90;69.40;;;;;;2570494;53;20937;-72
2023/01/17 14:40:17;;;;;;;3.37;0.85;;;9.90;68.30;;;;;;2326400;53;21454;-72
2023/01/17 14:42:43;;;;;;;2.87;0.90;;;9.90;69.00;;;;;;2325956;53;20949;-73
2023/01/17 14:45:13;;;;;;;1.92;0.70;;;9.90;69.30;;;;;;2328097;53;21826;-72
2023/01/17 14:47:42;;;;;;;1.80;0.65;;;9.90;69.20;;;;;;2330514;53;20952;-72
2023/01/17 14:50:48;;;;;;;1.75;0.70;;;9.80;68.90;;;;;;2329553;53;21246;-72
2023/01/17 14:53:18;;;;;;;2.55;0.80;;;9.80;68.70;;;;;;2323432;53;21491;-72
2023/01/17 14:55:51;;;;;;;2.00;0.80;;;9.80;68.80;;;;;;2432928;53;20984;-72
2023/01/17 14:58:22;;;;;;;2.42;1.10;;;9.80;68.50;;;;;;2327219;53;20948;-73
2023/01/17 15:00:50;;;;;;;2.15;0.80;;;9.70;68.50;;;;;;2328115;53;21485;-72
2023/01/17 15:03:16;;;;;;;1.00;0.60;;;9.70;68.60;;;;;;2326851;53;21362;-72
2023/01/17 15:05:46;;;;;;;1.60;0.60;;;9.70;68.50;;;;;;2325793;53;21525;-72
2023/01/17 15:08:17;;;;;;;2.03;0.70;;;9.70;68.50;;;;;;2326445;53;21031;-72
2023/01/17 15:10:56;;;;;;;2.12;0.80;;;9.70;68.40;;;;;;2325267;53;20933;-72
2023/01/17 15:13:31;;;;;;;1.95;0.82;;;9.60;68.20;;;;;;2328338;53;22095;-72
2023/01/17 15:16:29;;;;;;;2.33;0.80;;;9.60;68.20;;;;;;2326509;53;20969;-71
2023/01/17 15:18:56;;;;;;;4.57;2.00;;;9.60;67.40;;;;;;2325988;53;21854;-72
2023/01/17 15:21:25;;;;;;;6.30;3.30;;;9.60;68.20;;;;;;2326272;53;21466;-72
2023/01/17 15:23:56;;;;;;;8.05;5.32;;;9.50;68.10;;;;;;2299861;54;22038;-73
2023/01/17 15:26:31;;;;;;;5.15;3.25;;;9.50;68.20;;;;;;2327538;53;20992;-73
2023/01/17 15:29:06;;;;;;;4.80;2.28;;;9.50;68.00;;;;;;2326835;53;21071;-71
2023/01/17 15:31:57;;;;;;;3.60;1.33;;;9.50;68.00;;;;;;2570527;53;21119;-74
2023/01/17 15:34:26;;;;;;;2.72;1.37;;;9.50;67.80;;;;;;2327917;53;21866;-72
2023/01/17 15:36:52;;;;;;;3.20;1.40;;;9.40;68.10;;;;;;2426586;53;21068;-72
2023/01/17 15:39:38;;;;;;;2.70;1.10;;;9.40;68.00;;;;;;2327156;53;20980;-72
2023/01/17 15:42:18;;;;;;;2.72;1.05;;;9.40;67.30;;;;;;2326769;53;20968;-71